Flight Track Log - Related Links

Times and Time Zones

All times are in EDT time to prevent confusion due to time zone crossing. See the ASQ5740 flight status page for this flight to view local times or setup timezone preferences in your user account.

Time Position Orientation Groundspeed Altitude Reporting Facility
EDT Latitude Longitude Course Direction KTS MPH feet Rate Location/Type
Mon 12:41:38 PM 38.9833 -77.5500 72° East 232 267 1,900  Level Potomac TRACON
Mon 12:42:38 PM 39.0500 -77.5667 349° North 281 323 5,300 2,359 Climbing Potomac TRACON
Mon 12:43:00 PM 39.0014 -77.0779 72° East  Level FlightAware Approximate
Mon 12:44:00 PM 39.0167 -76.9520 90° East  Level FlightAware Approximate
Mon 12:45:00 PM 39.0469 -76.8291 72° East  Level FlightAware Approximate
Mon 12:45:04 PM 39.1544 -77.3850 53° Northeast 294 338 10,000  Level Washington Center
Mon 12:46:00 PM 39.0617 -76.7030 72° East  Level FlightAware Approximate
Mon 12:46:05 PM 39.1250 -77.2583 107° East 310 357 10,300  Level Washington Center
Mon 12:47:04 PM 39.0825 -77.1558 118° Southeast 312 359 13,900 2,672 Climbing Washington Center
Mon 12:48:04 PM 39.0378 -77.0719 124° Southeast 307 353 15,600 1,450 Climbing Washington Center
Mon 12:49:04 PM 38.9867 -76.9803 126° Southeast 312 359 16,800 1,082 Climbing Washington Center
Mon 12:50:06 PM 39.0089 -76.8578 77° East 306 352 17,800 900 Climbing Washington Center
Mon 12:51:04 PM 39.0331 -76.7272 77° East 328 377 18,600 1,008 Climbing Washington Center
Mon 12:52:05 PM 39.0281 -76.5883 93° East 362 417 19,800 1,091 Climbing Washington Center
Mon 12:53:05 PM 39.0292 -76.4519 89° East 377 434 20,800 950 Climbing Washington Center
Mon 12:54:05 PM 39.0656 -76.3133 71° East 392 451 21,700 942 Climbing Washington Center
Mon 12:55:06 PM 39.1058 -76.1719 70° East 398 458 22,700 645 Climbing Washington Center
Mon 12:56:06 PM 39.1522 -76.0278 67° East 414 476 23,000 153 Climbing Washington Center
Mon 12:57:04 PM 39.1986 -75.8836 67° East 419 482 23,000 153 Level Washington Center
Mon 12:58:04 PM 39.2800 -75.7686 48° Northeast 419 482 23,300 496 Climbing Washington Center
Mon 12:59:05 PM 39.3656 -75.6586 45° Northeast 429 494 24,000 595 Climbing Washington Center
Mon 01:00:05 PM 39.4553 -75.5431 45° Northeast 435 501 24,500 500 Climbing Washington Center
Mon 01:01:05 PM 39.5447 -75.4275 45° Northeast 446 513 25,000 496 Climbing Washington Center
Mon 01:02:06 PM 39.6361 -75.3058 46° Northeast 456 525 25,500 505 Climbing Washington Center
Mon 01:02:40 PM 39.6894 -75.2331 46° Northeast 459 528 25,800 505 Climbing New York Center
Mon 01:03:41 PM 39.7756 -75.1033 49° Northeast 472 543 26,300 443 Climbing New York Center
Mon 01:04:42 PM 39.8744 -74.9633 47° Northeast 478 550 26,700 545 Climbing New York Center
Mon 01:05:42 PM 39.9686 -74.8336 47° Northeast 484 557 27,400 610 Climbing New York Center
Mon 01:06:40 PM 40.0453 -74.7214 48° Northeast 479 551 27,900 508 Climbing New York Center
Mon 01:07:40 PM 40.1519 -74.5892 43° Northeast 479 551 28,400 500 Climbing New York Center
Mon 01:08:40 PM 40.2656 -74.4892 34° Northeast 474 545 28,900 298 Climbing New York Center
Mon 01:09:41 PM 40.3747 -74.3917 34° Northeast 479 551 29,000 49 Climbing New York Center
Mon 01:10:42 PM 40.4906 -74.2886 34° Northeast 484 557 29,000  Level New York Center
Mon 01:11:41 PM 40.6039 -74.1906 33° Northeast 490 564 29,000  Level New York Center
Mon 01:13:25 PM 40.7928 -74.0247 34° Northeast 488 562 29,000  Level Boston Center
Mon 01:14:25 PM 40.9089 -73.9231 33° Northeast 488 562 29,000  Level Boston Center
Mon 01:15:25 PM 41.0206 -73.8211 35° Northeast 488 562 29,000  Level Boston Center
Mon 01:16:27 PM 41.1344 -73.7189 34° Northeast 488 562 29,000  Level Boston Center
Mon 01:17:25 PM 41.2458 -73.6189 34° Northeast 488 562 29,000  Level Boston Center
Mon 01:18:25 PM 41.3669 -73.5936 North 450 518 29,000  Level Boston Center
Mon 01:19:25 PM 41.4919 -73.6122 354° North 438 504 29,000  Level Boston Center
Mon 01:20:25 PM 41.6106 -73.6339 352° North 438 504 29,000  Level Boston Center
Mon 01:21:25 PM 41.7333 -73.6503 354° North 438 504 29,000  Level Boston Center
Mon 01:22:25 PM 41.8517 -73.6858 347° North 444 511 29,000  Level Boston Center
Mon 01:23:25 PM 41.9717 -73.7525 338° Northwest 431 496 29,000  Level Boston Center
Mon 01:24:25 PM 42.0972 -73.7300 North 431 496 29,000  Level Boston Center
Mon 01:25:25 PM 42.1850 -73.7008 14° North 445 512 29,000  Level Boston Center
Mon 01:26:25 PM 42.3436 -73.6706 North 450 518 29,000  Level Boston Center
Mon 01:27:25 PM 42.4669 -73.6447 North 442 509 29,000  Level Boston Center
Mon 01:28:25 PM 42.5903 -73.6133 11° North 448 516 29,000  Level Boston Center
Mon 01:29:25 PM 42.7156 -73.5844 10° North 448 516 29,000  Level Boston Center
Mon 01:30:25 PM 42.8389 -73.5614 North 448 516 29,000 -850 Level Boston Center
Mon 01:31:25 PM 42.9572 -73.5892 350° North 433 498 27,300 -1,850 Descending Boston Center
Mon 01:32:25 PM 43.0797 -73.6339 345° North 439 505 25,300 -1,650 Descending Boston Center
Mon 01:33:25 PM 43.1919 -73.6617 350° North 452 520 24,000 -650 Descending Boston Center
Mon 01:34:25 PM 43.3114 -73.6156 16° North 440 506 24,000  Level Boston Center
Mon 01:35:25 PM 43.4056 -73.5833 14° North 435 501 24,000 -400 Level Boston Center
Mon 01:36:25 PM 43.5456 -73.5256 17° North 429 494 23,200 -500 Descending Boston Center
Mon 01:37:25 PM 43.6522 -73.4847 15° North 421 484 23,000 -350 Descending Boston Center
Mon 01:38:25 PM 43.7506 -73.4461 16° North 382 440 22,500 -1,600 Descending Boston Center
Mon 01:39:25 PM 43.8550 -73.4047 16° North 377 434 19,800 -2,950 Descending Boston Center
Mon 01:40:25 PM 43.9617 -73.3603 17° North 390 449 16,600 -3,400 Descending Boston Center
Mon 01:41:25 PM 44.0681 -73.3444 North 390 449 13,000 -3,250 Descending Boston Center
Mon 01:42:25 PM 44.1658 -73.3750 347° North 369 425 10,100 -2,600 Descending Boston Center
Mon 01:43:25 PM 44.2492 -73.3819 357° North 323 372 7,800 -2,150 Descending Boston Center
Mon 01:44:25 PM 44.3325 -73.3892 356° North 303 349 5,800 -1,850 Descending Boston Center
Mon 01:45:25 PM 44.4242 -73.3878 North 293 337 4,100 -1,550 Descending Boston Center
Mon 01:46:25 PM 44.4850 -73.3333 33° Northeast 265 305 2,700 -850 Descending Boston Center
Mon 01:47:25 PM 44.5250 -73.2700 48° Northeast 229 264 2,400 -300 Descending Boston Center

Login

Don't have an account? Register now (free) for customized features, flight alerts, and more!